createdAt,value
2023-05-01T00:01:58.775Z,9.36
2023-05-01T00:04:27.097Z,9.22
2023-05-01T00:06:54.010Z,9.13
2023-05-01T00:09:21.837Z,9.04
2023-05-01T00:11:50.065Z,9.15
2023-05-01T00:14:18.310Z,9.04
2023-05-01T00:16:47.230Z,8.96
2023-05-01T00:19:19.926Z,8.88
2023-05-01T00:21:49.729Z,8.85
2023-05-01T00:24:18.308Z,8.86
2023-05-01T00:26:47.934Z,8.85
2023-05-01T00:29:16.815Z,8.78
2023-05-01T00:31:46.866Z,8.78
2023-05-01T00:34:18.710Z,8.73
2023-05-01T00:36:50.736Z,8.81
2023-05-01T00:39:22.600Z,8.70
2023-05-01T00:41:53.769Z,8.60
2023-05-01T00:44:23.506Z,8.56
2023-05-01T00:46:53.568Z,8.52
2023-05-01T00:49:22.951Z,8.59
2023-05-01T00:51:54.718Z,8.57
2023-05-01T00:58:05.750Z,8.35
2023-05-01T01:00:35.832Z,8.27
2023-05-01T01:03:07.474Z,8.28
2023-05-01T01:05:46.715Z,8.14
2023-05-01T01:08:54.859Z,8.14
2023-05-01T01:11:39.985Z,8.08
2023-05-01T01:14:40.692Z,7.97
2023-05-01T01:21:29.409Z,7.79
2023-05-01T01:31:55.946Z,7.53
2023-05-01T01:34:41.681Z,7.49
2023-05-01T01:37:40.333Z,7.50
2023-05-01T01:40:18.862Z,7.42
2023-05-01T01:43:25.022Z,7.38
2023-05-01T01:46:27.149Z,7.37
2023-05-01T01:51:58.948Z,7.25
2023-05-01T01:57:49.980Z,7.20
2023-05-01T02:00:33.898Z,7.17
2023-05-01T02:03:02.980Z,7.10
2023-05-01T02:05:38.573Z,7.08
2023-05-01T02:08:13.838Z,7.07
2023-05-01T02:13:53.467Z,6.93
2023-05-01T02:16:27.109Z,6.92
2023-05-01T02:22:34.075Z,6.86
2023-05-01T02:25:09.669Z,6.85
2023-05-01T02:27:43.158Z,6.83
2023-05-01T02:30:21.449Z,6.84
2023-05-01T02:32:53.182Z,6.73
2023-05-01T02:35:23.510Z,6.76
2023-05-01T02:38:02.776Z,6.75
2023-05-01T02:40:39.758Z,6.71
2023-05-01T02:43:13.753Z,6.67
2023-05-01T02:46:05.769Z,6.64
2023-05-01T02:48:34.368Z,6.50
2023-05-01T02:51:02.655Z,6.47
2023-05-01T02:53:30.399Z,6.45
2023-05-01T02:56:03.762Z,6.41
2023-05-01T02:58:35.467Z,6.42
2023-05-01T03:01:08.055Z,6.38
2023-05-01T03:03:36.403Z,6.36
2023-05-01T03:06:04.727Z,6.39
2023-05-01T03:08:42.329Z,6.38
2023-05-01T03:11:11.803Z,6.30
2023-05-01T03:13:39.093Z,6.25
2023-05-01T03:16:06.526Z,6.22
2023-05-01T03:18:33.297Z,6.21
2023-05-01T03:21:00.400Z,6.20
2023-05-01T03:23:28.132Z,6.23
2023-05-01T03:25:54.948Z,6.16
2023-05-01T03:28:23.851Z,6.18
2023-05-01T03:30:54.601Z,6.12
2023-05-01T03:33:24.548Z,6.23
2023-05-01T03:36:04.160Z,6.11
2023-05-01T03:38:32.683Z,6.08
2023-05-01T03:41:00.267Z,6.14
2023-05-01T03:43:27.480Z,6.22
2023-05-01T03:45:55.684Z,6.24
2023-05-01T03:48:22.728Z,6.27
2023-05-01T03:50:49.941Z,6.32
2023-05-01T03:53:19.908Z,6.28
2023-05-01T03:55:47.190Z,6.19
2023-05-01T03:58:14.907Z,6.28
2023-05-01T04:00:46.789Z,6.31
2023-05-01T04:03:14.893Z,6.38
2023-05-01T04:05:42.441Z,6.39
2023-05-01T04:08:10.027Z,6.47
2023-05-01T04:10:59.667Z,6.55
2023-05-01T04:13:28.099Z,6.61
2023-05-01T04:15:58.391Z,6.78
2023-05-01T04:18:32.345Z,6.89
2023-05-01T04:21:02.273Z,7.05
2023-05-01T04:23:36.094Z,7.29
2023-05-01T04:26:08.550Z,7.61
2023-05-01T04:28:38.722Z,7.85
2023-05-01T04:31:06.650Z,8.06
2023-05-01T04:33:36.924Z,8.36
2023-05-01T04:36:04.044Z,8.71
2023-05-01T04:38:32.730Z,9.05
2023-05-01T04:41:01.071Z,9.42
2023-05-01T04:43:48.377Z,9.84
2023-05-01T04:46:27.388Z,10.26
2023-05-01T04:48:54.237Z,10.64
2023-05-01T04:51:24.239Z,11.07
2023-05-01T04:56:41.113Z,11.88
2023-05-01T04:59:09.043Z,12.22
2023-05-01T05:01:43.114Z,12.49
2023-05-01T05:04:17.610Z,12.77
2023-05-01T05:06:45.174Z,13.11
2023-05-01T05:09:13.343Z,13.39
2023-05-01T05:11:42.118Z,13.55
2023-05-01T05:14:10.847Z,13.89
2023-05-01T05:19:18.614Z,14.45
2023-05-01T05:21:46.217Z,14.75
2023-05-01T05:24:19.365Z,14.89
2023-05-01T05:26:53.211Z,15.05
2023-05-01T05:29:23.279Z,15.24
2023-05-01T05:31:58.670Z,15.50
2023-05-01T05:34:27.885Z,15.85
2023-05-01T05:36:58.137Z,15.83
2023-05-01T05:39:34.627Z,15.94
2023-05-01T05:42:01.984Z,16.13
2023-05-01T05:44:29.499Z,16.44
2023-05-01T05:46:56.349Z,16.75
2023-05-01T05:49:24.031Z,17.13
2023-05-01T05:51:54.804Z,17.33
2023-05-01T05:54:35.489Z,17.49
2023-05-01T05:57:04.073Z,17.61
2023-05-01T06:02:17.428Z,18.00
2023-05-01T06:04:44.677Z,18.07
2023-05-01T06:07:14.593Z,18.13
2023-05-01T06:09:48.543Z,18.06
2023-05-01T06:15:00.747Z,18.37
2023-05-01T06:17:27.556Z,18.87
2023-05-01T06:19:56.807Z,19.23
2023-05-01T06:22:23.962Z,19.37
2023-05-01T06:24:57.844Z,19.36
2023-05-01T06:27:24.667Z,19.36
2023-05-01T06:30:00.016Z,19.43
2023-05-01T06:32:26.941Z,19.71
2023-05-01T06:34:57.833Z,19.79
2023-05-01T06:37:28.243Z,19.83
2023-05-01T06:39:55.593Z,20.10
2023-05-01T06:42:40.061Z,20.08
2023-05-01T06:45:18.765Z,20.07
2023-05-01T06:47:46.157Z,20.06
2023-05-01T06:50:28.869Z,20.24
2023-05-01T06:52:57.876Z,20.43
2023-05-01T06:55:24.861Z,20.66
2023-05-01T06:58:30.456Z,20.67
2023-05-01T07:00:57.401Z,20.61
2023-05-01T07:03:25.643Z,20.51
2023-05-01T07:05:52.352Z,20.79
2023-05-01T07:08:19.107Z,21.17
2023-05-01T07:10:46.007Z,21.47
2023-05-01T07:13:12.746Z,21.74
2023-05-01T07:15:40.933Z,21.81
2023-05-01T07:18:11.828Z,22.06
2023-05-01T07:20:38.804Z,22.03
2023-05-01T07:23:27.381Z,22.07
2023-05-01T07:26:10.873Z,22.35
2023-05-01T07:28:38.557Z,22.51
2023-05-01T07:31:05.728Z,22.55
2023-05-01T07:33:32.527Z,22.33
2023-05-01T07:36:03.252Z,22.30
2023-05-01T07:38:30.148Z,21.99
2023-05-01T07:41:07.501Z,21.64
2023-05-01T07:43:34.453Z,21.47
2023-05-01T07:46:02.147Z,21.59
2023-05-01T07:48:32.841Z,21.86
2023-05-01T07:51:03.596Z,22.17
2023-05-01T07:53:34.174Z,22.19
2023-05-01T07:56:09.072Z,22.10
2023-05-01T07:58:37.221Z,22.03
2023-05-01T08:01:06.324Z,22.37
2023-05-01T08:03:33.309Z,22.57
2023-05-01T08:06:00.591Z,22.65
2023-05-01T08:08:27.865Z,22.51
2023-05-01T08:11:01.329Z,22.79
2023-05-01T08:13:28.352Z,23.00
2023-05-01T08:16:03.479Z,23.19
2023-05-01T08:18:31.624Z,23.62
2023-05-01T08:21:01.313Z,23.92
2023-05-01T08:23:30.653Z,23.99
2023-05-01T08:25:58.093Z,23.63
2023-05-01T08:28:26.705Z,23.22
2023-05-01T08:30:53.599Z,22.62
2023-05-01T08:33:21.677Z,22.36
2023-05-01T08:35:49.643Z,21.98
2023-05-01T08:38:17.738Z,21.64
2023-05-01T08:40:53.954Z,21.48
2023-05-01T08:43:33.540Z,21.43
2023-05-01T08:46:01.736Z,21.16
2023-05-01T08:48:30.136Z,21.20
2023-05-01T08:51:53.109Z,21.03
2023-05-01T08:55:04.581Z,21.08
2023-05-01T08:57:32.935Z,20.95
2023-05-01T09:00:01.685Z,21.00
2023-05-01T09:02:30.078Z,21.52
2023-05-01T09:05:01.045Z,21.96
2023-05-01T09:07:28.141Z,22.21
2023-05-01T09:09:55.765Z,22.53
2023-05-01T09:12:29.596Z,22.77
2023-05-01T09:14:57.232Z,22.72
2023-05-01T09:17:24.694Z,22.50
2023-05-01T09:19:55.432Z,22.60
2023-05-01T09:22:22.566Z,22.87
2023-05-01T09:24:52.378Z,23.08
2023-05-01T09:27:19.561Z,23.26
2023-05-01T09:29:51.276Z,23.67
2023-05-01T09:32:24.177Z,23.92
2023-05-01T09:34:57.236Z,23.81
2023-05-01T09:37:33.388Z,23.42
2023-05-01T09:40:31.085Z,23.29
2023-05-01T09:42:58.870Z,23.22
2023-05-01T09:45:27.252Z,23.27
2023-05-01T09:48:15.594Z,23.43
2023-05-01T09:50:43.616Z,23.26
2023-05-01T09:53:11.834Z,23.00
2023-05-01T09:55:38.819Z,23.07
2023-05-01T09:58:06.255Z,23.39
2023-05-01T10:00:47.983Z,23.91
2023-05-01T10:03:15.490Z,23.95
2023-05-01T10:05:53.914Z,22.93
2023-05-01T10:08:21.800Z,22.21
2023-05-01T10:11:23.292Z,21.71
2023-05-01T10:14:08.615Z,21.08
2023-05-01T10:16:37.414Z,20.95
2023-05-01T10:19:09.714Z,20.78
2023-05-01T10:21:36.557Z,20.76
2023-05-01T10:24:04.341Z,20.65
2023-05-01T10:26:31.700Z,20.65
2023-05-01T10:28:59.621Z,20.57
2023-05-01T10:31:27.928Z,20.61
2023-05-01T10:33:56.681Z,20.71
2023-05-01T10:36:51.109Z,20.82
2023-05-01T10:39:34.153Z,21.03
2023-05-01T10:42:06.797Z,21.39
2023-05-01T10:44:35.115Z,21.83
2023-05-01T10:47:43.079Z,22.02
2023-05-01T10:50:16.149Z,22.09
2023-05-01T10:53:12.268Z,22.32
2023-05-01T10:55:43.657Z,22.44
2023-05-01T10:58:14.288Z,22.47
2023-05-01T11:00:41.811Z,22.60
2023-05-01T11:03:24.810Z,22.24
2023-05-01T11:06:01.232Z,22.13
2023-05-01T11:08:39.709Z,22.21
2023-05-01T11:11:25.197Z,22.17
2023-05-01T11:14:05.068Z,22.08
2023-05-01T11:16:38.483Z,21.87
2023-05-01T11:19:20.674Z,21.89
2023-05-01T11:21:54.400Z,22.12
2023-05-01T11:24:21.281Z,22.14
2023-05-01T11:26:49.172Z,22.00
2023-05-01T11:29:16.182Z,21.64
2023-05-01T11:31:48.639Z,21.30
2023-05-01T11:34:17.264Z,21.01
2023-05-01T11:36:52.229Z,20.87
2023-05-01T11:39:20.387Z,20.72
2023-05-01T11:41:48.261Z,20.44
2023-05-01T11:44:21.691Z,20.34
2023-05-01T11:46:57.877Z,20.48
2023-05-01T11:49:28.821Z,20.63
2023-05-01T11:51:59.110Z,20.66
2023-05-01T11:54:27.419Z,20.64
2023-05-01T11:57:01.282Z,20.60
2023-05-01T11:59:28.497Z,20.64
2023-05-01T12:01:58.599Z,20.56
2023-05-01T12:04:32.318Z,20.51
2023-05-01T12:07:02.393Z,20.56
2023-05-01T12:09:29.453Z,20.58
2023-05-01T12:12:00.021Z,20.49
2023-05-01T12:14:26.883Z,20.25
2023-05-01T12:16:54.068Z,20.09
2023-05-01T12:19:23.950Z,19.99
2023-05-01T12:22:06.187Z,19.81
2023-05-01T12:24:33.416Z,19.72
2023-05-01T12:27:03.636Z,19.69
2023-05-01T12:29:41.753Z,19.60
2023-05-01T12:32:09.165Z,19.49
2023-05-01T12:34:35.978Z,19.45
2023-05-01T12:37:05.342Z,19.62
2023-05-01T12:39:44.990Z,20.13
2023-05-01T12:42:14.685Z,20.76
2023-05-01T12:44:44.790Z,21.35
2023-05-01T12:47:16.553Z,21.80
2023-05-01T12:49:43.704Z,21.98
2023-05-01T12:52:11.422Z,21.90
2023-05-01T12:54:39.552Z,21.62
2023-05-01T12:57:12.025Z,21.39
2023-05-01T12:59:48.143Z,21.29
2023-05-01T13:02:18.936Z,21.34
2023-05-01T13:04:49.570Z,21.62
2023-05-01T13:07:21.788Z,21.49
2023-05-01T13:10:01.565Z,21.67
2023-05-01T13:12:30.565Z,21.78
2023-05-01T13:15:02.425Z,21.79
2023-05-01T13:18:01.660Z,21.75
2023-05-01T13:20:45.819Z,21.71
2023-05-01T13:23:14.918Z,21.60
2023-05-01T13:26:09.244Z,21.51
2023-05-01T13:28:49.172Z,21.37
2023-05-01T13:31:24.508Z,21.22
2023-05-01T13:33:54.244Z,21.05
2023-05-01T13:36:34.811Z,21.03
2023-05-01T13:39:23.550Z,21.18
2023-05-01T13:41:57.571Z,21.56
2023-05-01T13:44:33.782Z,21.23
2023-05-01T13:47:04.066Z,20.81
2023-05-01T13:49:31.567Z,20.73
2023-05-01T13:51:59.016Z,20.72
2023-05-01T13:54:27.003Z,20.88
2023-05-01T13:56:54.498Z,21.05
2023-05-01T13:59:25.931Z,21.35
2023-05-01T14:02:01.267Z,21.50
2023-05-01T14:04:29.689Z,21.61
2023-05-01T14:06:56.920Z,21.63
2023-05-01T14:09:30.248Z,21.74
2023-05-01T14:11:59.148Z,21.76
2023-05-01T14:14:26.607Z,21.54
2023-05-01T14:16:58.673Z,21.67
2023-05-01T14:19:27.865Z,21.74
2023-05-01T14:21:55.193Z,21.72
2023-05-01T14:24:36.365Z,21.79
2023-05-01T14:27:05.878Z,21.88
2023-05-01T14:29:34.180Z,21.88
2023-05-01T14:35:29.806Z,22.02
2023-05-01T14:41:11.287Z,22.25
2023-05-01T14:44:07.420Z,22.28
2023-05-01T14:46:47.753Z,22.30
2023-05-01T14:49:23.375Z,22.32
2023-05-01T14:52:04.085Z,22.41
2023-05-01T14:54:48.385Z,22.41
2023-05-01T14:57:31.634Z,22.34
2023-05-01T15:02:48.982Z,22.12
2023-05-01T15:05:29.147Z,22.20
2023-05-01T15:07:58.342Z,22.23
2023-05-01T15:10:30.366Z,22.45
2023-05-01T15:12:58.381Z,22.49
2023-05-01T15:15:33.944Z,22.51
2023-05-01T15:18:07.221Z,22.35
2023-05-01T15:20:35.096Z,22.45
2023-05-01T15:23:03.641Z,22.28
2023-05-01T15:25:31.487Z,22.37
2023-05-01T15:27:58.630Z,22.26
2023-05-01T15:30:28.076Z,22.35
2023-05-01T15:32:56.348Z,22.22
2023-05-01T15:35:44.914Z,22.14
2023-05-01T15:38:12.481Z,22.19
2023-05-01T15:40:39.874Z,21.96
2023-05-01T15:43:06.931Z,21.78
2023-05-01T15:45:34.489Z,21.69
2023-05-01T15:48:01.992Z,21.63
2023-05-01T15:50:28.878Z,21.43
2023-05-01T15:52:56.578Z,21.47
2023-05-01T15:55:23.187Z,21.46
2023-05-01T15:57:50.432Z,21.36
2023-05-01T16:00:22.269Z,21.10
2023-05-01T16:02:49.170Z,20.93
2023-05-01T16:05:24.741Z,20.64
2023-05-01T16:07:56.103Z,20.43
2023-05-01T16:10:23.876Z,20.32
2023-05-01T16:12:51.406Z,20.10
2023-05-01T16:15:18.706Z,20.02
2023-05-01T16:17:46.820Z,19.96
2023-05-01T16:20:14.688Z,19.85
2023-05-01T16:22:43.521Z,19.78
2023-05-01T16:25:11.221Z,19.70
2023-05-01T16:27:47.879Z,19.59
2023-05-01T16:30:16.020Z,19.60
2023-05-01T16:32:45.750Z,19.58
2023-05-01T16:35:18.784Z,19.48
2023-05-01T16:37:47.272Z,19.39
2023-05-01T16:40:18.488Z,19.30
2023-05-01T16:42:53.660Z,19.18
2023-05-01T16:45:21.487Z,19.08
2023-05-01T16:47:48.999Z,18.98
2023-05-01T16:50:23.146Z,18.85
2023-05-01T16:52:52.629Z,18.74
2023-05-01T16:55:19.810Z,18.66
2023-05-01T16:57:46.604Z,18.54
2023-05-01T17:00:15.123Z,18.38
2023-05-01T17:02:42.255Z,18.26
2023-05-01T17:05:09.907Z,18.17
2023-05-01T17:07:37.006Z,18.10
2023-05-01T17:10:04.384Z,17.94
2023-05-01T17:12:31.664Z,17.82
2023-05-01T17:14:58.618Z,17.76
2023-05-01T17:17:25.745Z,17.62
2023-05-01T17:19:53.039Z,17.53
2023-05-01T17:22:20.210Z,17.46
2023-05-01T17:24:47.891Z,17.41
2023-05-01T17:27:15.783Z,17.31
2023-05-01T17:29:53.857Z,17.19
2023-05-01T17:32:36.881Z,17.18
2023-05-01T17:35:18.727Z,17.08
2023-05-01T17:37:46.871Z,16.97
2023-05-01T17:40:13.563Z,16.96
2023-05-01T17:43:04.976Z,16.81
2023-05-01T17:45:55.313Z,16.66
2023-05-01T17:48:24.691Z,16.62
2023-05-01T17:54:35.106Z,16.38
2023-05-01T17:57:04.909Z,16.14
2023-05-01T17:59:36.565Z,16.10
2023-05-01T18:02:13.497Z,15.95
2023-05-01T18:04:42.462Z,15.73
2023-05-01T18:07:10.665Z,15.65
2023-05-01T18:09:48.283Z,15.49
2023-05-01T18:12:23.800Z,15.32
2023-05-01T18:14:52.537Z,15.17
2023-05-01T18:17:32.235Z,15.08
2023-05-01T18:20:02.755Z,15.06
2023-05-01T18:25:16.168Z,14.78
2023-05-01T18:27:46.301Z,14.55
2023-05-01T18:30:16.270Z,14.39
2023-05-01T18:32:48.828Z,14.31
2023-05-01T18:35:21.684Z,14.15
2023-05-01T18:37:49.921Z,14.04
2023-05-01T18:40:19.157Z,13.86
2023-05-01T18:42:48.949Z,13.73
2023-05-01T18:45:18.389Z,13.57
2023-05-01T18:47:56.235Z,13.50
2023-05-01T18:50:24.599Z,13.33
2023-05-01T18:52:54.077Z,13.21
2023-05-01T18:55:24.895Z,13.16
2023-05-01T18:58:12.339Z,13.01
2023-05-01T19:00:47.454Z,12.92
2023-05-01T19:03:31.500Z,12.83
2023-05-01T19:06:00.222Z,12.70
2023-05-01T19:08:33.141Z,12.57
2023-05-01T19:11:01.695Z,12.48
2023-05-01T19:13:31.146Z,12.41
2023-05-01T19:16:00.314Z,12.36
2023-05-01T19:18:29.758Z,12.30
2023-05-01T19:21:01.398Z,12.16
2023-05-01T19:23:36.088Z,12.00
2023-05-01T19:26:14.008Z,11.90
2023-05-01T19:28:43.417Z,11.87
2023-05-01T19:31:13.800Z,11.74
2023-05-01T19:33:43.310Z,11.69
2023-05-01T19:36:12.246Z,11.54
2023-05-01T19:39:04.186Z,11.48
2023-05-01T19:41:36.769Z,11.53
2023-05-01T19:46:48.680Z,11.27
2023-05-01T19:49:25.946Z,11.28
2023-05-01T19:52:04.763Z,11.20
2023-05-01T19:54:58.376Z,11.02
2023-05-01T19:57:37.590Z,10.96
2023-05-01T20:00:16.517Z,10.82
2023-05-01T20:03:32.776Z,10.74
2023-05-01T20:06:03.238Z,10.64
2023-05-01T20:08:33.034Z,10.66
2023-05-01T20:11:08.458Z,10.58
2023-05-01T20:13:44.623Z,10.49
2023-05-01T20:16:21.786Z,10.40
2023-05-01T20:19:02.452Z,10.29
2023-05-01T20:21:41.529Z,10.27
2023-05-01T20:24:12.414Z,10.21
2023-05-01T20:26:45.261Z,10.17
2023-05-01T20:29:14.736Z,10.04
2023-05-01T20:32:23.902Z,10.04
2023-05-01T20:35:05.333Z,9.88
2023-05-01T20:37:59.035Z,9.86
2023-05-01T20:40:49.739Z,9.83
2023-05-01T20:43:36.130Z,9.85
2023-05-01T20:46:21.148Z,9.86
2023-05-01T20:49:30.585Z,9.87
2023-05-01T20:52:08.672Z,9.80
2023-05-01T20:54:46.725Z,9.73
2023-05-01T21:00:24.698Z,9.53
2023-05-01T21:02:53.464Z,9.54
2023-05-01T21:05:25.693Z,9.39
2023-05-01T21:07:53.567Z,9.38
2023-05-01T21:10:21.650Z,9.38
2023-05-01T21:12:48.697Z,9.20
2023-05-01T21:15:16.688Z,9.23
2023-05-01T21:18:07.945Z,9.13
2023-05-01T21:20:39.595Z,9.13
2023-05-01T21:23:08.067Z,9.07
2023-05-01T21:25:39.009Z,9.05
2023-05-01T21:28:08.058Z,8.96
2023-05-01T21:30:37.371Z,8.90
2023-05-01T21:33:08.319Z,8.94
2023-05-01T21:35:35.901Z,8.78
2023-05-01T21:38:09.222Z,8.82
2023-05-01T21:40:43.486Z,8.83
2023-05-01T21:43:11.621Z,8.79
2023-05-01T21:45:44.089Z,8.70
2023-05-01T21:48:16.988Z,8.74
2023-05-01T21:50:56.513Z,8.67
2023-05-01T21:53:33.926Z,8.64
2023-05-01T21:56:05.954Z,8.55
2023-05-01T21:58:41.345Z,8.61
2023-05-01T22:01:12.838Z,8.53
2023-05-01T22:03:53.538Z,8.52
2023-05-01T22:06:24.776Z,8.49
2023-05-01T22:08:53.489Z,8.42
2023-05-01T22:11:22.860Z,8.31
2023-05-01T22:13:49.598Z,8.32
2023-05-01T22:16:17.037Z,8.19
2023-05-01T22:18:44.337Z,8.13
2023-05-01T22:21:11.848Z,8.15
2023-05-01T22:23:39.014Z,8.12
2023-05-01T22:26:06.645Z,8.05
2023-05-01T22:28:39.572Z,8.04
2023-05-01T22:31:08.246Z,8.08
2023-05-01T22:33:38.316Z,7.98
2023-05-01T22:36:07.562Z,8.05
2023-05-01T22:38:34.829Z,8.04
2023-05-01T22:41:01.868Z,8.04
2023-05-01T22:43:28.617Z,8.01
2023-05-01T22:45:59.141Z,7.99
2023-05-01T22:48:27.716Z,7.90
2023-05-01T22:50:54.675Z,7.90
2023-05-01T22:53:21.721Z,7.93
2023-05-01T22:55:55.926Z,7.87
2023-05-01T22:58:23.872Z,7.84
2023-05-01T23:00:51.600Z,7.89
2023-05-01T23:03:19.431Z,7.77
2023-05-01T23:05:48.004Z,7.66
2023-05-01T23:08:19.518Z,7.66
2023-05-01T23:10:49.262Z,7.65
2023-05-01T23:13:26.034Z,7.60
2023-05-01T23:16:03.517Z,7.61
2023-05-01T23:18:33.663Z,7.65
2023-05-01T23:21:03.686Z,7.59
2023-05-01T23:23:54.097Z,7.57
2023-05-01T23:26:29.595Z,7.54
2023-05-01T23:28:57.621Z,7.57
2023-05-01T23:31:28.679Z,7.48
2023-05-01T23:34:05.784Z,7.41
2023-05-01T23:36:33.889Z,7.38
2023-05-01T23:39:11.214Z,7.38
2023-05-01T23:42:01.406Z,7.45
2023-05-01T23:44:30.664Z,7.51
2023-05-01T23:47:01.695Z,7.45
2023-05-01T23:49:35.493Z,7.48
2023-05-01T23:52:03.957Z,7.46
2023-05-01T23:54:38.173Z,7.38
2023-05-01T23:57:09.649Z,7.44
2023-05-01T23:59:41.586Z,7.38
